Terminal Aerodrome Forecast
Issued by NWS Newport/Morehead City, NC

Home | Current Version | Previous Version | Text Only | Print | Product List | Glossary On
Versions: 1 2 3 4 5 6 7 8 9 10 11 12 13 14 15
000
FTUS42 KMHX 041140
TAFEWN
TAF
KEWN 041140Z 0412/0512 23010KT P6SM SCT100
     FM041400 24015G25KT P6SM SCT050
     FM041700 25020G28KT P6SM VCTS SCT050CB
     FM050000 22006KT P6SM VCTS SCT050CB BKN100
     FM050600 VRB03KT P6SM SCT100=

USA.gov is the U.S. government's official web portal to all federal, state and local government web resources and services.